Flight Track Log - Related Links

Times and Time Zones

All times are in EDT time to prevent confusion due to time zone crossing. See the DCM1130 flight status page for this flight to view local times or setup timezone preferences in your user account.

Time Position Orientation Groundspeed Altitude Reporting Facility
EDT Latitude Longitude Course Direction KTS MPH feet Rate Location/Type
Mon 06:43:38 AM 40.1000 -75.0333 303° West 209 241 1,100  Level Philadelphia TRACON
Mon 06:44:14 AM 40.1167 -75.0667 309° West 226 260 2,100 2,688 Climbing Philadelphia TRACON
Mon 06:45:14 AM 40.1333 -75.1333 288° West 261 300 5,400 3,150 Climbing Philadelphia TRACON
Mon 06:46:14 AM 40.1000 -75.2167 242° Southwest 269 310 8,400 2,368 Climbing Philadelphia TRACON
Mon 06:47:08 AM 40.0667 -75.3167 246° West 307 353 9,900 842 Climbing Philadelphia TRACON
Mon 06:48:08 AM 40.0333 -75.4167 247° West 338 389 10,000 122 Climbing Philadelphia TRACON
Mon 06:49:36 AM 39.9622 -75.5592 237° Southwest 356 410 10,200 1,176 Climbing New York Center
Mon 06:50:36 AM 39.9217 -75.6808 247° West 343 395 12,900 2,850 Climbing New York Center
Mon 06:51:36 AM 39.9131 -75.7886 264° West 338 389 15,900 2,800 Climbing New York Center
Mon 06:52:36 AM 39.9139 -75.9131 271° West 333 383 18,500 2,500 Climbing New York Center
Mon 06:53:36 AM 39.9139 -76.0539 270° West 352 405 20,900 2,300 Climbing New York Center
Mon 06:54:36 AM 39.9119 -76.1864 269° West 364 419 23,100 1,850 Climbing New York Center
Mon 06:55:36 AM 39.9122 -76.3164 270° West 364 419 24,600 1,500 Climbing New York Center
Mon 06:56:36 AM 39.9183 -76.4494 273° West 364 419 26,100 1,500 Climbing New York Center
Mon 06:57:36 AM 39.9244 -76.5800 274° West 369 425 27,600 1,500 Climbing New York Center
Mon 06:58:36 AM 39.9283 -76.7158 272° West 369 425 29,100 1,450 Climbing New York Center
Mon 06:59:36 AM 39.9342 -76.8461 273° West 369 425 30,500 1,350 Climbing New York Center
Mon 07:00:36 AM 39.9397 -76.9767 273° West 369 425 31,800 1,150 Climbing New York Center
Mon 07:01:36 AM 39.9453 -77.1100 273° West 369 425 32,800 1,000 Climbing New York Center
Mon 07:02:36 AM 39.9483 -77.2428 272° West 369 425 33,800 1,050 Climbing New York Center
Mon 07:03:36 AM 39.9536 -77.3733 273° West 369 425 34,900 1,034 Climbing New York Center
Mon 07:05:30 AM 39.9636 -77.6061 273° West 381 438 36,800 1,000 Climbing Cleveland Center
Mon 07:06:30 AM 39.9689 -77.7333 273° West 370 426 37,800 600 Climbing Cleveland Center
Mon 07:07:30 AM 39.9719 -77.8606 272° West 363 418 38,000 100 Climbing Cleveland Center
Mon 07:08:30 AM 39.9753 -77.9931 272° West 363 418 38,000  Level Cleveland Center
Mon 07:09:30 AM 39.9803 -78.1256 273° West 368 423 38,000  Level Cleveland Center
Mon 07:10:30 AM 39.9831 -78.2639 272° West 368 423 38,000  Level Cleveland Center
Mon 07:11:30 AM 39.9817 -78.3994 269° West 373 429 38,000  Level Cleveland Center
Mon 07:12:30 AM 39.9819 -78.5347 270° West 378 435 38,000  Level Cleveland Center
Mon 07:13:30 AM 39.9864 -78.6728 272° West 378 435 38,000  Level Cleveland Center
Mon 07:14:30 AM 39.9886 -78.8083 271° West 384 442 38,000  Level Cleveland Center
Mon 07:15:30 AM 39.9928 -78.9436 272° West 384 442 38,000  Level Cleveland Center
Mon 07:16:30 AM 40.0011 -79.0817 275° West 384 442 38,000  Level Cleveland Center
Mon 07:17:30 AM 40.0028 -79.2172 271° West 384 442 38,000  Level Cleveland Center
Mon 07:18:30 AM 40.0042 -79.3525 271° West 384 442 38,000  Level Cleveland Center
Mon 07:19:30 AM 40.0056 -79.4881 271° West 384 442 38,000  Level Cleveland Center
Mon 07:20:30 AM 40.0089 -79.6264 272° West 384 442 38,000  Level Cleveland Center
Mon 07:21:30 AM 40.0100 -79.7617 271° West 384 442 38,000  Level Cleveland Center
Mon 07:22:30 AM 40.0111 -79.9108 271° West 384 442 38,000  Level Cleveland Center
Mon 07:23:30 AM 40.0117 -80.0492 270° West 384 442 38,000 100 Level Cleveland Center
Mon 07:24:30 AM 40.0144 -80.1872 272° West 384 442 38,200 600 Climbing Cleveland Center
Mon 07:25:30 AM 40.0147 -80.3228 270° West 379 436 39,200 900 Climbing Cleveland Center
Mon 07:26:30 AM 40.0150 -80.4531 270° West 379 436 40,000 400 Climbing Cleveland Center
Mon 07:27:30 AM 40.0172 -80.5831 271° West 367 422 40,000  Level Cleveland Center
Mon 07:28:30 AM 40.0169 -80.7186 270° West 367 422 40,000  Level Cleveland Center
Mon 07:29:30 AM 40.0189 -80.8542 271° West 367 422 40,000  Level Cleveland Center
Mon 07:30:50 AM 40.0131 -81.0369 268° West 382 440 40,000  Level Indianapolis Center
Mon 07:31:52 AM 40.0114 -81.1783 269° West 385 443 40,000  Level Indianapolis Center
Mon 07:32:53 AM 40.0086 -81.3208 269° West 389 448 40,000  Level Indianapolis Center
Mon 07:33:55 AM 40.0064 -81.4647 269° West 392 451 40,000  Level Indianapolis Center
Mon 07:34:56 AM 40.0028 -81.6103 268° West 396 456 40,000  Level Indianapolis Center
Mon 07:35:57 AM 39.9997 -81.7572 268° West 401 461 40,000  Level Indianapolis Center
Mon 07:36:59 AM 39.9967 -81.9072 269° West 404 465 40,000  Level Indianapolis Center
Mon 07:38:00 AM 39.9936 -82.0547 268° West 405 466 40,000  Level Indianapolis Center
Mon 07:39:02 AM 39.9906 -82.2053 269° West 411 473 40,000  Level Indianapolis Center
Mon 07:40:03 AM 39.9864 -82.3531 268° West 408 470 40,000  Level Indianapolis Center
Mon 07:41:04 AM 39.9828 -82.5017 268° West 407 468 40,000  Level Indianapolis Center
Mon 07:42:06 AM 39.9767 -82.6792 267° West 417 480 40,000  Level Indianapolis Center
Mon 07:43:07 AM 39.9722 -82.8300 268° West 416 479 40,000  Level Indianapolis Center
Mon 07:44:09 AM 39.9672 -82.9842 268° West 422 486 40,000  Level Indianapolis Center
Mon 07:45:10 AM 39.9642 -83.1358 269° West 419 482 40,000  Level Indianapolis Center
Mon 07:46:12 AM 39.9606 -83.2889 268° West 422 486 40,000  Level Indianapolis Center
Mon 07:47:13 AM 39.9567 -83.4414 268° West 425 489 40,000  Level Indianapolis Center
Mon 07:48:15 AM 39.9508 -83.5967 267° West 436 502 40,000  Level Indianapolis Center
Mon 07:49:16 AM 39.9431 -83.7764 267° West 430 495 40,000  Level Indianapolis Center
Mon 07:50:18 AM 39.9367 -83.9319 267° West 430 495 40,000  Level Indianapolis Center
Mon 07:51:19 AM 39.9300 -84.0889 267° West 432 497 40,000  Level Indianapolis Center
Mon 07:52:21 AM 39.9236 -84.2461 267° West 433 498 40,000  Level Indianapolis Center
Mon 07:53:22 AM 39.9175 -84.4044 267° West 436 502 40,000  Level Indianapolis Center
Mon 07:54:24 AM 39.9103 -84.5619 267° West 434 499 40,000  Level Indianapolis Center
Mon 07:55:26 AM 39.9019 -84.7206 266° West 436 502 40,000  Level Indianapolis Center
Mon 07:56:27 AM 39.8944 -84.8781 266° West 435 501 40,000  Level Indianapolis Center
Mon 07:57:29 AM 39.8872 -85.0403 267° West 435 501 40,000  Level Indianapolis Center
Mon 07:58:30 AM 39.8794 -85.1983 266° West 439 505 40,000  Level Indianapolis Center
Mon 07:59:32 AM 39.8700 -85.3894 266° West 445 512 40,000  Level Indianapolis Center
Mon 08:00:33 AM 39.8611 -85.5475 266° West 441 507 40,000 -293 Level Indianapolis Center
Mon 08:01:35 AM 39.8389 -85.7067 260° West 452 520 39,400 -1,016 Descending Indianapolis Center
Mon 08:02:37 AM 39.8036 -85.8575 253° West 440 506 37,900 -1,463 Descending Indianapolis Center
Mon 08:03:38 AM 39.7703 -86.0061 254° West 431 496 36,400 -1,610 Descending Indianapolis Center
Mon 08:04:40 AM 39.7319 -86.1761 254° West 444 511 34,600 -1,610 Descending Indianapolis Center
Mon 08:05:41 AM 39.7072 -86.3347 259° West 450 518 33,100 -1,512 Descending Indianapolis Center
Mon 08:06:43 AM 39.7128 -86.4981 273° West 461 531 31,500 -1,512 Descending Indianapolis Center
Mon 08:07:44 AM 39.7217 -86.6603 274° West 455 524 30,000 -1,512 Descending Indianapolis Center
Mon 08:08:46 AM 39.7303 -86.8228 274° West 452 520 28,400 -1,512 Descending Indianapolis Center
Mon 08:09:47 AM 39.7383 -86.9844 274° West 451 519 26,900 -1,171 Descending Indianapolis Center
Mon 08:10:49 AM 39.7464 -87.1436 274° West 446 513 26,000 -439 Descending Indianapolis Center
Mon 08:11:50 AM 39.7553 -87.3325 274° West 438 504 26,000  Level Indianapolis Center
Mon 08:12:52 AM 39.7622 -87.4914 273° West 441 507 26,000  Level Indianapolis Center
Mon 08:13:54 AM 39.7692 -87.6492 273° West 440 506 26,000  Level Indianapolis Center
Mon 08:14:55 AM 39.7761 -87.8067 273° West 439 505 26,000 -732 Level Indianapolis Center
Mon 08:15:57 AM 39.7822 -87.9614 273° West 434 499 24,500 -1,659 Descending Indianapolis Center
Mon 08:16:58 AM 39.7892 -88.1156 273° West 430 495 22,600 -1,596 Descending Indianapolis Center
Mon 08:17:31 AM 39.7917 -88.2142 272° West 430 495 22,000 -379 Descending Kansas City Center
Mon 08:18:33 AM 39.7978 -88.3628 273° West 423 487 22,000 -339 Level Kansas City Center
Mon 08:19:35 AM 39.8044 -88.5136 273° West 420 483 21,300 -1,707 Descending Kansas City Center
Mon 08:20:36 AM 39.8086 -88.6611 272° West 414 476 18,500 -2,459 Descending Kansas City Center
Mon 08:21:37 AM 39.8133 -88.8006 273° West 396 456 16,300 -2,213 Descending Kansas City Center
Mon 08:22:38 AM 39.8175 -88.9342 272° West 379 436 14,000 -2,146 Descending Kansas City Center
Mon 08:23:40 AM 39.8206 -89.0531 272° West 348 400 11,900 -2,000 Descending Kansas City Center
Mon 08:24:41 AM 39.8250 -89.1611 273° West 315 362 9,900 -1,869 Descending Kansas City Center
Mon 08:25:42 AM 39.8278 -89.2631 272° West 294 338 8,100 -1,686 Descending Kansas City Center
Mon 08:26:42 AM 39.8200 -89.3633 264° West 282 325 6,500 -1,537 Descending Kansas City Center
Mon 08:27:43 AM 39.8086 -89.4597 261° West 273 314 5,000 -1,645 Descending Kansas City Center
Mon 08:28:46 AM 39.7908 -89.5664 258° West 259 298 3,100 -1,548 Descending Kansas City Center
Mon 08:29:47 AM 39.8050 -89.6156 291° West 199 229 1,800 -1,073 Descending Kansas City Center
Mon 08:30:49 AM 39.8294 -89.6522 311° West 158 182 900 -541 Descending Kansas City Center
Mon 08:31:49 AM 39.8519 -89.6897 308° West 153 176 700 -200 Descending Kansas City Center
Mon 08:33:00 AM 39.8442 -89.6781 142° Southeast  Level Estimated

Login

Don't have an account? Register now (free) for customized features, flight alerts, and more!